createdAt,value
2022-11-01T00:01:31.648Z,17.13
2022-11-01T00:03:58.944Z,13.15
2022-11-01T00:06:27.587Z,10.07
2022-11-01T00:08:54.833Z,11.70
2022-11-01T00:11:22.266Z,14.65
2022-11-01T00:13:50.451Z,18.60
2022-11-01T00:16:18.898Z,10.32
2022-11-01T00:18:46.355Z,11.48
2022-11-01T00:21:14.588Z,12.18
2022-11-01T00:23:42.247Z,10.43
2022-11-01T00:26:15.398Z,15.25
2022-11-01T00:28:42.767Z,13.32
2022-11-01T00:31:12.656Z,12.93
2022-11-01T00:33:40.490Z,12.70
2022-11-01T00:36:08.682Z,10.70
2022-11-01T00:38:36.685Z,8.25
2022-11-01T00:41:04.953Z,11.48
2022-11-01T00:43:32.929Z,12.95
2022-11-01T00:46:00.682Z,14.35
2022-11-01T00:48:28.255Z,12.10
2022-11-01T00:50:55.748Z,13.13
2022-11-01T00:53:22.943Z,10.95
2022-11-01T00:55:50.144Z,13.98
2022-11-01T00:58:17.293Z,13.90
2022-11-01T01:00:44.438Z,12.38
2022-11-01T01:03:11.545Z,11.20
2022-11-01T01:05:39.531Z,11.00
2022-11-01T01:08:06.663Z,15.50
2022-11-01T01:10:33.857Z,9.73
2022-11-01T01:13:01.182Z,16.50
2022-11-01T01:15:28.528Z,14.55
2022-11-01T01:17:55.618Z,13.05
2022-11-01T01:20:23.215Z,9.48
2022-11-01T01:22:53.550Z,10.70
2022-11-01T01:25:21.091Z,14.07
2022-11-01T01:27:49.283Z,17.30
2022-11-01T01:30:19.923Z,7.60
2022-11-01T01:32:47.287Z,11.27
2022-11-01T01:35:14.667Z,16.65
2022-11-01T01:37:44.274Z,10.85
2022-11-01T01:40:11.530Z,13.63
2022-11-01T01:42:43.122Z,13.55
2022-11-01T01:45:35.463Z,15.52
2022-11-01T01:48:23.214Z,13.90
2022-11-01T01:51:11.170Z,12.13
2022-11-01T01:53:38.270Z,17.55
2022-11-01T01:56:10.280Z,15.40
2022-11-01T01:58:46.469Z,13.60
2022-11-01T02:01:13.839Z,9.10
2022-11-01T02:03:42.929Z,20.38
2022-11-01T02:06:16.231Z,9.27
2022-11-01T02:08:50.061Z,16.13
2022-11-01T02:11:18.974Z,18.05
2022-11-01T02:13:46.536Z,19.45
2022-11-01T02:16:25.561Z,17.27
2022-11-01T02:19:18.603Z,17.60
2022-11-01T02:21:51.559Z,12.95
2022-11-01T02:24:48.868Z,8.65
2022-11-01T02:27:18.351Z,15.32
2022-11-01T02:30:05.478Z,12.75
2022-11-01T02:32:44.862Z,4.63
2022-11-01T02:35:35.063Z,7.22
2022-11-01T02:38:33.391Z,2.47
2022-11-01T02:41:09.888Z,1.77
2022-11-01T02:43:36.946Z,3.97
2022-11-01T02:46:25.992Z,3.15
2022-11-01T02:48:55.036Z,2.40
2022-11-01T02:51:23.715Z,4.10
2022-11-01T02:53:50.929Z,2.63
2022-11-01T02:56:19.178Z,4.30
2022-11-01T02:58:48.011Z,2.42
2022-11-01T03:01:22.974Z,2.33
2022-11-01T03:03:53.751Z,4.20
2022-11-01T03:06:39.917Z,4.32
2022-11-01T03:09:11.508Z,2.33
2022-11-01T03:11:54.266Z,3.20
2022-11-01T03:14:33.950Z,4.90
2022-11-01T03:17:12.062Z,4.50
2022-11-01T03:19:57.833Z,4.25
2022-11-01T03:22:38.637Z,5.03
2022-11-01T03:25:31.879Z,10.20
2022-11-01T03:28:03.936Z,7.03
2022-11-01T03:30:33.826Z,7.95
2022-11-01T03:33:01.739Z,10.68
2022-11-01T03:35:34.946Z,7.93
2022-11-01T03:38:12.840Z,8.55
2022-11-01T03:40:44.601Z,9.93
2022-11-01T03:43:15.414Z,12.00
2022-11-01T03:45:43.283Z,18.98
2022-11-01T03:48:10.691Z,15.77
2022-11-01T03:50:40.135Z,14.40
2022-11-01T03:53:07.237Z,12.95
2022-11-01T03:55:34.407Z,10.05
2022-11-01T03:58:02.146Z,15.25
2022-11-01T04:00:34.949Z,10.60
2022-11-01T04:03:02.467Z,13.00
2022-11-01T04:05:31.591Z,13.50
2022-11-01T04:07:59.145Z,12.05
2022-11-01T04:10:27.830Z,12.95
2022-11-01T04:12:55.808Z,11.02
2022-11-01T04:15:42.651Z,10.57
2022-11-01T04:21:11.000Z,15.55
2022-11-01T04:23:38.507Z,14.20
2022-11-01T04:26:07.511Z,15.98
2022-11-01T04:28:34.680Z,12.23
2022-11-01T04:31:02.571Z,11.95
2022-11-01T04:33:29.661Z,16.88
2022-11-01T04:35:56.790Z,10.13
2022-11-01T04:38:23.889Z,9.13
2022-11-01T04:40:50.972Z,11.25
2022-11-01T04:43:18.042Z,13.52
2022-11-01T04:45:53.151Z,12.90
2022-11-01T04:48:20.224Z,11.38
2022-11-01T04:50:47.341Z,9.65
2022-11-01T04:53:14.670Z,11.68
2022-11-01T04:55:41.799Z,15.07
2022-11-01T04:58:10.877Z,12.38
2022-11-01T05:00:38.866Z,14.95
2022-11-01T05:03:07.754Z,15.32
2022-11-01T05:05:35.827Z,11.10
2022-11-01T05:08:04.812Z,11.82
2022-11-01T05:10:32.731Z,15.07
2022-11-01T05:13:00.913Z,11.05
2022-11-01T05:15:28.560Z,20.23
2022-11-01T05:17:55.746Z,16.02
2022-11-01T05:20:22.875Z,8.68
2022-11-01T05:22:50.053Z,15.00
2022-11-01T05:25:18.032Z,12.27
2022-11-01T05:27:45.315Z,17.45
2022-11-01T05:30:13.117Z,12.38
2022-11-01T05:32:40.197Z,23.33
2022-11-01T05:35:08.134Z,15.60
2022-11-01T05:37:36.824Z,11.00
2022-11-01T05:40:04.284Z,13.00
2022-11-01T05:42:31.379Z,14.48
2022-11-01T05:44:58.495Z,19.30
2022-11-01T05:47:25.550Z,18.48
2022-11-01T05:49:52.663Z,17.58
2022-11-01T05:52:19.804Z,21.77
2022-11-01T05:54:46.887Z,11.85
2022-11-01T05:57:13.970Z,14.07
2022-11-01T05:59:41.197Z,15.73
2022-11-01T06:02:08.350Z,18.02
2022-11-01T06:04:35.476Z,24.00
2022-11-01T06:07:04.219Z,20.83
2022-11-01T06:09:31.549Z,19.73
2022-11-01T06:11:58.686Z,15.35
2022-11-01T06:14:25.884Z,17.00
2022-11-01T06:16:53.402Z,19.45
2022-11-01T06:19:20.639Z,22.52
2022-11-01T06:21:47.909Z,22.02
2022-11-01T06:24:16.435Z,19.98
2022-11-01T06:26:43.827Z,16.00
2022-11-01T06:29:10.952Z,19.23
2022-11-01T06:31:38.123Z,22.88
2022-11-01T06:34:05.318Z,25.88
2022-11-01T06:36:32.412Z,18.05
2022-11-01T06:38:59.650Z,29.00
2022-11-01T06:41:26.750Z,20.00
2022-11-01T06:43:54.034Z,21.58
2022-11-01T06:46:21.170Z,19.23
2022-11-01T06:48:49.142Z,20.10
2022-11-01T06:51:16.366Z,20.83
2022-11-01T06:53:43.535Z,18.05
2022-11-01T06:56:10.670Z,22.55
2022-11-01T06:58:37.814Z,18.85
2022-11-01T07:01:05.108Z,25.15
2022-11-01T07:03:32.334Z,16.80
2022-11-01T07:06:00.668Z,22.73
2022-11-01T07:08:27.751Z,19.92
2022-11-01T07:10:55.138Z,31.02
2022-11-01T07:13:22.294Z,22.27
2022-11-01T07:15:49.403Z,22.60
2022-11-01T07:18:16.604Z,22.73
2022-11-01T07:20:43.794Z,18.98
2022-11-01T07:23:16.625Z,19.33
2022-11-01T07:25:44.607Z,28.77
2022-11-01T07:28:11.710Z,18.70
2022-11-01T07:30:39.484Z,19.00
2022-11-01T07:33:07.099Z,22.70
2022-11-01T07:35:35.190Z,18.33
2022-11-01T07:38:06.400Z,25.17
2022-11-01T07:40:37.913Z,17.15
2022-11-01T07:43:06.059Z,22.48
2022-11-01T07:45:35.600Z,17.38
2022-11-01T07:48:06.197Z,20.65
2022-11-01T07:50:34.454Z,17.23
2022-11-01T07:53:05.840Z,20.10
2022-11-01T07:55:33.449Z,18.33
2022-11-01T07:58:00.755Z,20.67
2022-11-01T08:00:28.694Z,20.42
2022-11-01T08:03:03.508Z,20.85
2022-11-01T08:05:31.081Z,20.02
2022-11-01T08:08:01.497Z,21.30
2022-11-01T08:10:29.346Z,18.33
2022-11-01T08:13:07.848Z,18.70
2022-11-01T08:15:35.775Z,15.88
2022-11-01T08:18:03.567Z,21.15
2022-11-01T08:20:31.321Z,24.02
2022-11-01T08:22:58.688Z,21.02
2022-11-01T08:25:25.985Z,21.45
2022-11-01T08:27:55.966Z,21.80
2022-11-01T08:30:23.117Z,18.15
2022-11-01T08:32:50.155Z,19.23
2022-11-01T08:35:17.303Z,19.73
2022-11-01T08:37:51.779Z,14.65
2022-11-01T08:40:19.650Z,12.48
2022-11-01T08:42:47.657Z,17.65
2022-11-01T08:45:15.863Z,18.75
2022-11-01T08:47:43.780Z,14.43
2022-11-01T08:50:13.089Z,16.40
2022-11-01T08:52:40.968Z,17.45
2022-11-01T08:55:09.591Z,14.75
2022-11-01T08:57:36.947Z,13.90
2022-11-01T09:00:07.225Z,13.13
2022-11-01T09:02:35.503Z,18.42
2022-11-01T09:05:02.820Z,17.40
2022-11-01T09:07:29.982Z,10.93
2022-11-01T09:09:57.200Z,9.55
2022-11-01T09:12:24.984Z,11.85
2022-11-01T09:14:52.657Z,12.18
2022-11-01T09:17:19.882Z,15.20
2022-11-01T09:19:47.269Z,16.05
2022-11-01T09:22:14.574Z,19.65
2022-11-01T09:24:41.839Z,17.70
2022-11-01T09:27:09.668Z,15.57
2022-11-01T09:29:37.954Z,18.75
2022-11-01T09:32:06.723Z,19.35
2022-11-01T09:34:35.160Z,19.80
2022-11-01T09:37:02.841Z,14.88
2022-11-01T09:39:30.081Z,18.80
2022-11-01T09:42:32.722Z,13.50
2022-11-01T09:45:06.363Z,20.08
2022-11-01T09:47:34.369Z,16.23
2022-11-01T09:50:36.789Z,20.58
2022-11-01T09:53:09.173Z,11.63
2022-11-01T09:55:57.625Z,16.83
2022-11-01T09:58:46.367Z,18.13
2022-11-01T10:01:22.644Z,18.83
2022-11-01T10:04:22.446Z,13.00
2022-11-01T10:07:03.778Z,16.73
2022-11-01T10:09:43.096Z,15.75
2022-11-01T10:12:13.851Z,15.80
2022-11-01T10:15:09.344Z,13.30
2022-11-01T10:17:52.704Z,16.52
2022-11-01T10:20:30.658Z,14.95
2022-11-01T10:22:58.895Z,11.68
2022-11-01T10:25:39.481Z,13.73
2022-11-01T10:28:22.237Z,9.43
2022-11-01T10:31:01.659Z,10.50
2022-11-01T10:33:50.340Z,13.32
2022-11-01T10:36:27.153Z,13.73
2022-11-01T10:39:54.067Z,13.13
2022-11-01T10:42:18.033Z,11.30
2022-11-01T10:45:11.659Z,8.27
2022-11-01T10:47:39.378Z,6.35
2022-11-01T10:50:19.927Z,8.60
2022-11-01T10:53:08.326Z,5.85
2022-11-01T10:55:35.429Z,4.25
2022-11-01T10:58:07.537Z,9.40
2022-11-01T11:00:37.447Z,8.73
2022-11-01T11:03:23.229Z,7.53
2022-11-01T11:05:52.674Z,10.00
2022-11-01T11:08:23.707Z,7.03
2022-11-01T11:10:51.309Z,8.07
2022-11-01T11:13:25.187Z,6.72
2022-11-01T11:16:01.681Z,11.35
2022-11-01T11:18:32.351Z,6.70
2022-11-01T11:21:04.488Z,10.68
2022-11-01T11:23:37.640Z,6.57
2022-11-01T11:26:16.819Z,6.75
2022-11-01T11:28:51.858Z,10.55
2022-11-01T11:31:26.626Z,8.63
2022-11-01T11:33:56.979Z,10.38
2022-11-01T11:36:34.112Z,14.77
2022-11-01T11:39:02.852Z,16.15
2022-11-01T11:41:36.797Z,11.10
2022-11-01T11:44:24.457Z,23.48
2022-11-01T11:46:58.138Z,10.93
2022-11-01T11:49:28.485Z,22.30
2022-11-01T11:51:56.007Z,13.70
2022-11-01T11:54:37.744Z,16.83
2022-11-01T11:57:31.358Z,11.80
2022-11-01T12:00:05.739Z,14.25
2022-11-01T12:02:41.486Z,14.82
2022-11-01T12:05:22.542Z,10.65
2022-11-01T12:07:58.005Z,10.40
2022-11-01T12:10:38.630Z,10.35
2022-11-01T12:13:28.304Z,13.38
2022-11-01T12:16:17.587Z,6.55
2022-11-01T12:19:01.325Z,6.38
2022-11-01T12:21:42.398Z,12.70
2022-11-01T12:24:40.536Z,11.93
2022-11-01T12:27:14.857Z,7.88
2022-11-01T12:29:50.780Z,14.35
2022-11-01T12:32:25.031Z,5.35
2022-11-01T12:34:55.113Z,13.20
2022-11-01T12:37:33.361Z,9.25
2022-11-01T12:40:07.334Z,11.68
2022-11-01T12:43:01.562Z,10.60
2022-11-01T12:45:41.598Z,18.67
2022-11-01T12:48:16.484Z,19.58
2022-11-01T12:50:43.695Z,16.15
2022-11-01T12:53:44.916Z,14.00
2022-11-01T12:56:12.437Z,18.23
2022-11-01T12:58:39.711Z,15.73
2022-11-01T13:01:43.934Z,13.95
2022-11-01T13:04:31.798Z,11.07
2022-11-01T13:07:11.029Z,14.25
2022-11-01T13:10:07.275Z,15.18
2022-11-01T13:12:53.391Z,9.68
2022-11-01T13:15:36.171Z,4.10
2022-11-01T13:18:21.610Z,8.75
2022-11-01T13:21:10.033Z,10.65
2022-11-01T13:23:38.434Z,10.32
2022-11-01T13:26:14.544Z,13.23
2022-11-01T13:28:47.758Z,7.75
2022-11-01T13:31:39.791Z,7.35
2022-11-01T13:34:26.499Z,9.05
2022-11-01T13:37:20.040Z,6.45
2022-11-01T13:40:28.967Z,8.32
2022-11-01T13:43:03.047Z,9.38
2022-11-01T13:46:07.758Z,8.35
2022-11-01T13:48:54.229Z,11.18
2022-11-01T13:51:49.369Z,4.78
2022-11-01T13:54:48.268Z,4.70
2022-11-01T13:57:17.218Z,6.80
2022-11-01T13:59:55.439Z,5.75
2022-11-01T14:02:28.900Z,3.35
2022-11-01T14:05:10.720Z,5.25
2022-11-01T14:07:59.075Z,7.47
2022-11-01T14:10:29.868Z,3.42
2022-11-01T14:12:57.163Z,5.45
2022-11-01T14:15:28.740Z,3.15
2022-11-01T14:18:07.521Z,4.63
2022-11-01T14:20:44.580Z,6.15
2022-11-01T14:23:29.447Z,4.95
2022-11-01T14:26:18.602Z,3.65
2022-11-01T14:28:56.871Z,6.28
2022-11-01T14:31:27.543Z,5.32
2022-11-01T14:33:59.952Z,3.22
2022-11-01T14:36:31.481Z,5.78
2022-11-01T14:39:18.345Z,7.35
2022-11-01T14:41:51.219Z,6.50
2022-11-01T14:44:31.671Z,6.82
2022-11-01T14:47:01.992Z,9.73
2022-11-01T14:49:33.697Z,11.75
2022-11-01T14:52:23.613Z,8.10
2022-11-01T14:55:13.457Z,8.10
2022-11-01T14:57:41.178Z,9.30
2022-11-01T15:00:41.271Z,8.05
2022-11-01T15:03:09.738Z,5.60
2022-11-01T15:05:49.078Z,8.15
2022-11-01T15:08:30.030Z,5.03
2022-11-01T15:11:01.434Z,9.05
2022-11-01T15:13:32.348Z,4.27
2022-11-01T15:16:21.795Z,6.65
2022-11-01T15:19:16.503Z,6.82
2022-11-01T15:21:47.274Z,10.88
2022-11-01T15:24:24.596Z,10.70
2022-11-01T15:26:53.176Z,13.00
2022-11-01T15:29:25.593Z,8.82
2022-11-01T15:31:58.155Z,12.82
2022-11-01T15:34:28.425Z,6.38
2022-11-01T15:36:56.364Z,11.73
2022-11-01T15:39:25.773Z,10.95
2022-11-01T15:41:55.299Z,11.40
2022-11-01T15:44:23.866Z,10.88
2022-11-01T15:46:54.526Z,15.43
2022-11-01T15:49:26.969Z,13.02
2022-11-01T15:52:07.248Z,11.85
2022-11-01T15:54:49.535Z,13.68
2022-11-01T15:57:26.685Z,11.60
2022-11-01T15:59:57.505Z,15.90
2022-11-01T16:02:40.861Z,7.13
2022-11-01T16:05:12.290Z,14.35
2022-11-01T16:07:41.009Z,15.18
2022-11-01T16:10:15.069Z,12.73
2022-11-01T16:12:45.655Z,16.83
2022-11-01T16:15:31.114Z,14.80
2022-11-01T16:18:00.297Z,17.42
2022-11-01T16:20:30.186Z,18.63
2022-11-01T16:23:00.511Z,18.10
2022-11-01T16:25:32.887Z,10.45
2022-11-01T16:30:47.315Z,15.60
2022-11-01T16:33:29.791Z,23.98
2022-11-01T16:38:28.902Z,14.63
2022-11-01T16:41:01.268Z,17.52
2022-11-01T16:45:58.592Z,15.43
2022-11-01T16:48:32.004Z,22.90
2022-11-01T16:51:00.931Z,18.48
2022-11-01T16:53:30.460Z,14.13
2022-11-01T16:56:34.966Z,13.43
2022-11-01T16:58:59.264Z,14.45
2022-11-01T17:01:35.343Z,13.80
2022-11-01T17:04:04.071Z,15.65
2022-11-01T17:06:36.125Z,22.30
2022-11-01T17:09:13.975Z,19.60
2022-11-01T17:11:45.062Z,16.20
2022-11-01T17:14:15.328Z,11.93
2022-11-01T17:16:44.799Z,18.42
2022-11-01T17:19:20.653Z,16.02
2022-11-01T17:21:49.562Z,17.05
2022-11-01T17:24:20.125Z,13.25
2022-11-01T17:26:48.612Z,16.73
2022-11-01T17:29:15.818Z,16.30
2022-11-01T17:31:42.968Z,18.88
2022-11-01T17:34:10.229Z,16.05
2022-11-01T17:36:40.561Z,23.95
2022-11-01T17:39:10.497Z,18.35
2022-11-01T17:41:38.005Z,13.90
2022-11-01T17:44:06.587Z,13.80
2022-11-01T17:46:34.004Z,13.07
2022-11-01T17:49:01.129Z,13.13
2022-11-01T17:51:28.487Z,12.48
2022-11-01T17:53:56.489Z,8.68
2022-11-01T17:56:24.537Z,12.40
2022-11-01T17:58:53.787Z,14.38
2022-11-01T18:01:21.844Z,6.47
2022-11-01T18:03:49.573Z,11.73
2022-11-01T18:06:17.192Z,11.45
2022-11-01T18:08:47.481Z,6.38
2022-11-01T18:11:39.467Z,6.13
2022-11-01T18:14:12.583Z,5.28
2022-11-01T18:16:50.036Z,8.23
2022-11-01T18:20:01.423Z,4.90
2022-11-01T18:22:49.484Z,7.05
2022-11-01T18:25:39.488Z,9.68
2022-11-01T18:28:23.251Z,8.75
2022-11-01T18:31:23.614Z,10.50
2022-11-01T18:34:15.702Z,12.35
2022-11-01T18:37:09.334Z,7.05
2022-11-01T18:39:39.597Z,7.15
2022-11-01T18:42:09.748Z,10.63
2022-11-01T18:44:38.380Z,6.50
2022-11-01T18:47:15.420Z,8.70
2022-11-01T18:49:42.717Z,7.88
2022-11-01T18:52:17.890Z,13.15
2022-11-01T18:54:56.634Z,3.83
2022-11-01T18:57:27.587Z,9.13
2022-11-01T18:59:55.581Z,10.43
2022-11-01T19:02:28.213Z,12.88
2022-11-01T19:05:24.597Z,9.88
2022-11-01T19:08:20.301Z,11.32
2022-11-01T19:10:44.524Z,13.02
2022-11-01T19:13:17.601Z,11.38
2022-11-01T19:15:44.788Z,9.13
2022-11-01T19:18:22.613Z,7.55
2022-11-01T19:20:58.208Z,11.38
2022-11-01T19:23:31.615Z,5.93
2022-11-01T19:25:59.213Z,9.77
2022-11-01T19:28:37.145Z,8.35
2022-11-01T19:31:20.371Z,8.15
2022-11-01T19:33:50.466Z,7.63
2022-11-01T19:36:20.304Z,9.80
2022-11-01T19:38:53.119Z,12.95
2022-11-01T19:41:29.690Z,9.05
2022-11-01T19:44:01.009Z,6.18
2022-11-01T19:46:28.300Z,10.85
2022-11-01T19:48:55.534Z,10.55
2022-11-01T19:51:26.765Z,6.28
2022-11-01T19:53:54.535Z,13.85
2022-11-01T19:56:29.233Z,11.95
2022-11-01T19:59:02.944Z,10.93
2022-11-01T20:01:34.851Z,6.30
2022-11-01T20:04:14.151Z,6.68
2022-11-01T20:06:50.713Z,6.15
2022-11-01T20:09:27.410Z,7.70
2022-11-01T20:11:56.110Z,6.38
2022-11-01T20:14:23.350Z,4.88
2022-11-01T20:16:50.542Z,13.65
2022-11-01T20:19:18.194Z,9.05
2022-11-01T20:21:45.961Z,8.52
2022-11-01T20:24:13.462Z,15.52
2022-11-01T20:26:40.710Z,8.30
2022-11-01T20:29:08.574Z,4.43
2022-11-01T20:31:35.795Z,5.70
2022-11-01T20:34:07.100Z,10.30
2022-11-01T20:36:34.312Z,5.93
2022-11-01T20:39:01.625Z,4.00
2022-11-01T20:41:28.999Z,7.80
2022-11-01T20:43:56.751Z,10.50
2022-11-01T20:46:24.121Z,7.50
2022-11-01T20:48:51.395Z,7.82
2022-11-01T20:51:18.653Z,14.15
2022-11-01T20:53:45.770Z,9.65
2022-11-01T20:56:13.015Z,4.40
2022-11-01T20:58:40.665Z,6.18
2022-11-01T21:01:19.494Z,9.45
2022-11-01T21:03:46.758Z,6.57
2022-11-01T21:06:16.757Z,8.38
2022-11-01T21:08:47.237Z,6.50
2022-11-01T21:11:43.748Z,9.05
2022-11-01T21:14:18.857Z,4.43
2022-11-01T21:16:48.120Z,9.43
2022-11-01T21:19:24.193Z,5.78
2022-11-01T21:21:57.182Z,7.97
2022-11-01T21:24:36.493Z,6.53
2022-11-01T21:27:12.547Z,7.47
2022-11-01T21:29:43.137Z,6.05
2022-11-01T21:32:29.868Z,8.68
2022-11-01T21:34:58.143Z,11.13
2022-11-01T21:37:28.788Z,5.43
2022-11-01T21:40:06.026Z,7.40
2022-11-01T21:42:36.282Z,7.22
2022-11-01T21:45:31.393Z,11.02
2022-11-01T21:48:03.296Z,5.10
2022-11-01T21:52:57.881Z,8.68
2022-11-01T21:55:25.158Z,9.20
2022-11-01T21:57:52.340Z,8.07
2022-11-01T22:00:19.603Z,11.05
2022-11-01T22:02:46.762Z,10.75
2022-11-01T22:05:14.033Z,12.23
2022-11-01T22:07:42.236Z,13.18
2022-11-01T22:10:09.700Z,14.15
2022-11-01T22:12:36.872Z,14.75
2022-11-01T22:15:04.380Z,16.23
2022-11-01T22:17:31.534Z,10.32
2022-11-01T22:19:58.695Z,10.80
2022-11-01T22:22:25.791Z,13.43
2022-11-01T22:24:52.913Z,11.32
2022-11-01T22:27:20.036Z,17.15
2022-11-01T22:29:47.664Z,16.10
2022-11-01T22:32:14.827Z,16.15
2022-11-01T22:34:41.962Z,10.38
2022-11-01T22:37:13.223Z,9.93
2022-11-01T22:39:41.142Z,14.95
2022-11-01T22:42:13.139Z,9.70
2022-11-01T22:44:41.586Z,10.40
2022-11-01T22:47:21.482Z,8.07
2022-11-01T22:50:01.393Z,13.73
2022-11-01T22:52:38.880Z,12.27
2022-11-01T22:55:12.686Z,8.45
2022-11-01T22:57:46.783Z,10.40
2022-11-01T23:00:50.131Z,9.65
2022-11-01T23:03:22.587Z,10.68
2022-11-01T23:05:52.651Z,10.07
2022-11-01T23:08:37.220Z,11.82
2022-11-01T23:11:05.047Z,13.82
2022-11-01T23:13:53.214Z,8.70
2022-11-01T23:16:20.293Z,12.93
2022-11-01T23:18:47.378Z,8.82
2022-11-01T23:21:14.600Z,9.70
2022-11-01T23:23:43.747Z,13.75
2022-11-01T23:26:11.898Z,6.30
2022-11-01T23:28:44.853Z,12.00
2022-11-01T23:31:12.265Z,8.35
2022-11-01T23:33:40.608Z,10.50
2022-11-01T23:36:19.653Z,7.93
2022-11-01T23:39:06.791Z,6.47
2022-11-01T23:41:37.876Z,11.70
2022-11-01T23:44:12.607Z,8.43
2022-11-01T23:46:39.824Z,12.07
2022-11-01T23:49:23.700Z,11.52
2022-11-01T23:51:52.173Z,10.13
2022-11-01T23:54:32.772Z,6.80
2022-11-01T23:57:00.078Z,11.27
2022-11-01T23:59:27.349Z,9.20
